sensor_id;sensor_type;location;lat;lon;timestamp;P1;durP1;ratioP1;P2;durP2;ratioP2
6053;SDS011;3055;50.886;14.814;2023-10-13T00:01:53;12.03;;;10.23;;
6053;SDS011;3055;50.886;14.814;2023-10-13T00:04:22;12.97;;;10.70;;
6053;SDS011;3055;50.886;14.814;2023-10-13T00:06:50;13.33;;;10.23;;
6053;SDS011;3055;50.886;14.814;2023-10-13T00:09:18;13.23;;;10.47;;
6053;SDS011;3055;50.886;14.814;2023-10-13T00:11:49;11.80;;;9.50;;
6053;SDS011;3055;50.886;14.814;2023-10-13T00:14:17;14.60;;;11.13;;
6053;SDS011;3055;50.886;14.814;2023-10-13T00:16:46;13.27;;;10.17;;
6053;SDS011;3055;50.886;14.814;2023-10-13T00:19:29;14.33;;;10.83;;
6053;SDS011;3055;50.886;14.814;2023-10-13T00:22:03;13.07;;;10.83;;
6053;SDS011;3055;50.886;14.814;2023-10-13T00:24:35;14.40;;;10.60;;
6053;SDS011;3055;50.886;14.814;2023-10-13T00:27:11;13.60;;;10.03;;
6053;SDS011;3055;50.886;14.814;2023-10-13T00:29:54;14.63;;;10.47;;
6053;SDS011;3055;50.886;14.814;2023-10-13T00:32:47;15.00;;;10.17;;
6053;SDS011;3055;50.886;14.814;2023-10-13T00:35:21;12.47;;;9.57;;
6053;SDS011;3055;50.886;14.814;2023-10-13T00:37:53;12.67;;;9.33;;
6053;SDS011;3055;50.886;14.814;2023-10-13T00:40:22;15.77;;;9.17;;
6053;SDS011;3055;50.886;14.814;2023-10-13T00:43:19;15.93;;;9.40;;
6053;SDS011;3055;50.886;14.814;2023-10-13T00:46:01;13.27;;;9.67;;
6053;SDS011;3055;50.886;14.814;2023-10-13T00:48:34;11.70;;;8.63;;
6053;SDS011;3055;50.886;14.814;2023-10-13T00:51:07;12.77;;;9.10;;
6053;SDS011;3055;50.886;14.814;2023-10-13T00:53:43;11.03;;;8.80;;
6053;SDS011;3055;50.886;14.814;2023-10-13T00:56:13;13.27;;;9.33;;
6053;SDS011;3055;50.886;14.814;2023-10-13T00:58:49;15.37;;;9.57;;
6053;SDS011;3055;50.886;14.814;2023-10-13T01:01:17;10.63;;;8.30;;
6053;SDS011;3055;50.886;14.814;2023-10-13T01:03:47;12.67;;;8.40;;
6053;SDS011;3055;50.886;14.814;2023-10-13T01:06:16;14.30;;;8.63;;
6053;SDS011;3055;50.886;14.814;2023-10-13T01:08:44;11.13;;;7.23;;
6053;SDS011;3055;50.886;14.814;2023-10-13T01:11:16;9.93;;;8.27;;
6053;SDS011;3055;50.886;14.814;2023-10-13T01:13:43;10.53;;;8.30;;
6053;SDS011;3055;50.886;14.814;2023-10-13T01:16:13;9.87;;;8.03;;
6053;SDS011;3055;50.886;14.814;2023-10-13T01:18:39;10.00;;;8.10;;
6053;SDS011;3055;50.886;14.814;2023-10-13T01:21:13;10.80;;;8.47;;
6053;SDS011;3055;50.886;14.814;2023-10-13T01:23:43;10.93;;;7.50;;
6053;SDS011;3055;50.886;14.814;2023-10-13T01:26:11;12.47;;;9.90;;
6053;SDS011;3055;50.886;14.814;2023-10-13T01:28:41;13.73;;;9.27;;
6053;SDS011;3055;50.886;14.814;2023-10-13T01:31:12;11.53;;;8.80;;
6053;SDS011;3055;50.886;14.814;2023-10-13T01:33:49;13.57;;;9.20;;
6053;SDS011;3055;50.886;14.814;2023-10-13T01:36:19;10.63;;;9.43;;
6053;SDS011;3055;50.886;14.814;2023-10-13T01:38:50;14.27;;;9.73;;
6053;SDS011;3055;50.886;14.814;2023-10-13T01:41:17;13.20;;;9.90;;
6053;SDS011;3055;50.886;14.814;2023-10-13T01:43:45;11.33;;;9.80;;
6053;SDS011;3055;50.886;14.814;2023-10-13T01:46:13;12.60;;;10.10;;
6053;SDS011;3055;50.886;14.814;2023-10-13T01:48:40;13.53;;;10.40;;
6053;SDS011;3055;50.886;14.814;2023-10-13T01:51:09;12.40;;;9.00;;
6053;SDS011;3055;50.886;14.814;2023-10-13T01:53:36;13.77;;;10.07;;
6053;SDS011;3055;50.886;14.814;2023-10-13T01:56:05;12.10;;;10.43;;
6053;SDS011;3055;50.886;14.814;2023-10-13T01:58:35;11.23;;;9.40;;
6053;SDS011;3055;50.886;14.814;2023-10-13T02:01:08;13.97;;;10.60;;
6053;SDS011;3055;50.886;14.814;2023-10-13T02:03:35;11.63;;;9.23;;
6053;SDS011;3055;50.886;14.814;2023-10-13T02:06:06;12.43;;;9.50;;
6053;SDS011;3055;50.886;14.814;2023-10-13T02:08:35;10.03;;;8.73;;
6053;SDS011;3055;50.886;14.814;2023-10-13T02:11:09;12.50;;;8.50;;
6053;SDS011;3055;50.886;14.814;2023-10-13T02:13:35;12.67;;;9.53;;
6053;SDS011;3055;50.886;14.814;2023-10-13T02:16:06;11.80;;;8.97;;
6053;SDS011;3055;50.886;14.814;2023-10-13T02:18:33;14.17;;;9.60;;
6053;SDS011;3055;50.886;14.814;2023-10-13T02:21:06;12.43;;;10.23;;
6053;SDS011;3055;50.886;14.814;2023-10-13T02:23:38;14.43;;;9.83;;
6053;SDS011;3055;50.886;14.814;2023-10-13T02:26:11;13.30;;;9.10;;
6053;SDS011;3055;50.886;14.814;2023-10-13T02:28:40;12.53;;;9.43;;
6053;SDS011;3055;50.886;14.814;2023-10-13T02:31:09;11.20;;;9.03;;
6053;SDS011;3055;50.886;14.814;2023-10-13T02:33:36;12.77;;;8.77;;
6053;SDS011;3055;50.886;14.814;2023-10-13T02:36:10;13.77;;;8.50;;
6053;SDS011;3055;50.886;14.814;2023-10-13T02:38:37;11.17;;;9.27;;
6053;SDS011;3055;50.886;14.814;2023-10-13T02:41:12;12.37;;;9.57;;
6053;SDS011;3055;50.886;14.814;2023-10-13T02:43:50;14.83;;;9.87;;
6053;SDS011;3055;50.886;14.814;2023-10-13T02:46:17;15.13;;;10.00;;
6053;SDS011;3055;50.886;14.814;2023-10-13T02:48:46;11.40;;;9.40;;
6053;SDS011;3055;50.886;14.814;2023-10-13T02:51:18;13.33;;;9.77;;
6053;SDS011;3055;50.886;14.814;2023-10-13T02:53:50;11.50;;;9.17;;
6053;SDS011;3055;50.886;14.814;2023-10-13T02:56:19;12.87;;;9.70;;
6053;SDS011;3055;50.886;14.814;2023-10-13T02:58:47;14.80;;;11.17;;
6053;SDS011;3055;50.886;14.814;2023-10-13T03:01:18;15.50;;;10.90;;
6053;SDS011;3055;50.886;14.814;2023-10-13T03:03:48;11.93;;;10.13;;
6053;SDS011;3055;50.886;14.814;2023-10-13T03:06:17;14.03;;;11.37;;
6053;SDS011;3055;50.886;14.814;2023-10-13T03:08:48;13.63;;;11.17;;
6053;SDS011;3055;50.886;14.814;2023-10-13T03:11:15;13.63;;;11.47;;
6053;SDS011;3055;50.886;14.814;2023-10-13T03:13:48;16.23;;;12.07;;
6053;SDS011;3055;50.886;14.814;2023-10-13T03:16:17;12.57;;;10.33;;
6053;SDS011;3055;50.886;14.814;2023-10-13T03:18:45;13.73;;;10.57;;
6053;SDS011;3055;50.886;14.814;2023-10-13T03:21:19;14.53;;;11.43;;
6053;SDS011;3055;50.886;14.814;2023-10-13T03:23:58;13.17;;;11.63;;
6053;SDS011;3055;50.886;14.814;2023-10-13T03:26:31;14.13;;;11.43;;
6053;SDS011;3055;50.886;14.814;2023-10-13T03:29:10;16.60;;;12.03;;
6053;SDS011;3055;50.886;14.814;2023-10-13T03:31:39;17.20;;;11.07;;
6053;SDS011;3055;50.886;14.814;2023-10-13T03:34:10;13.90;;;11.63;;
6053;SDS011;3055;50.886;14.814;2023-10-13T03:36:37;14.03;;;10.43;;
6053;SDS011;3055;50.886;14.814;2023-10-13T03:39:23;12.37;;;10.77;;
6053;SDS011;3055;50.886;14.814;2023-10-13T03:41:55;11.20;;;9.63;;
6053;SDS011;3055;50.886;14.814;2023-10-13T03:44:25;13.90;;;11.10;;
6053;SDS011;3055;50.886;14.814;2023-10-13T03:46:55;13.43;;;10.43;;
6053;SDS011;3055;50.886;14.814;2023-10-13T03:49:33;13.23;;;11.00;;
6053;SDS011;3055;50.886;14.814;2023-10-13T03:52:03;19.30;;;11.33;;
6053;SDS011;3055;50.886;14.814;2023-10-13T03:54:31;13.87;;;10.50;;
6053;SDS011;3055;50.886;14.814;2023-10-13T03:57:00;14.63;;;10.67;;
6053;SDS011;3055;50.886;14.814;2023-10-13T03:59:37;16.00;;;10.80;;
6053;SDS011;3055;50.886;14.814;2023-10-13T04:02:05;14.43;;;11.17;;
6053;SDS011;3055;50.886;14.814;2023-10-13T04:04:37;14.17;;;10.67;;
6053;SDS011;3055;50.886;14.814;2023-10-13T04:07:13;17.43;;;12.13;;
6053;SDS011;3055;50.886;14.814;2023-10-13T04:10:04;13.57;;;11.50;;
6053;SDS011;3055;50.886;14.814;2023-10-13T04:13:04;15.03;;;12.03;;
6053;SDS011;3055;50.886;14.814;2023-10-13T04:15:49;16.03;;;11.43;;
6053;SDS011;3055;50.886;14.814;2023-10-13T04:18:40;13.80;;;11.67;;
6053;SDS011;3055;50.886;14.814;2023-10-13T04:21:29;17.40;;;11.90;;
6053;SDS011;3055;50.886;14.814;2023-10-13T04:24:05;14.27;;;12.03;;
6053;SDS011;3055;50.886;14.814;2023-10-13T04:26:49;15.87;;;12.80;;
6053;SDS011;3055;50.886;14.814;2023-10-13T04:29:30;14.20;;;11.67;;
6053;SDS011;3055;50.886;14.814;2023-10-13T04:32:12;13.40;;;11.27;;
6053;SDS011;3055;50.886;14.814;2023-10-13T04:34:40;13.97;;;12.20;;
6053;SDS011;3055;50.886;14.814;2023-10-13T04:37:10;14.07;;;12.40;;
6053;SDS011;3055;50.886;14.814;2023-10-13T04:39:53;13.87;;;11.33;;
6053;SDS011;3055;50.886;14.814;2023-10-13T04:42:23;13.87;;;11.60;;
6053;SDS011;3055;50.886;14.814;2023-10-13T04:45:05;13.03;;;11.33;;
6053;SDS011;3055;50.886;14.814;2023-10-13T04:47:54;13.20;;;11.67;;
6053;SDS011;3055;50.886;14.814;2023-10-13T04:50:38;17.60;;;13.60;;
6053;SDS011;3055;50.886;14.814;2023-10-13T04:53:10;17.83;;;13.70;;
6053;SDS011;3055;50.886;14.814;2023-10-13T04:55:53;16.57;;;14.77;;
6053;SDS011;3055;50.886;14.814;2023-10-13T04:58:53;22.90;;;15.57;;
6053;SDS011;3055;50.886;14.814;2023-10-13T05:01:38;17.73;;;15.63;;
6053;SDS011;3055;50.886;14.814;2023-10-13T05:04:27;21.33;;;16.47;;
6053;SDS011;3055;50.886;14.814;2023-10-13T05:07:04;16.73;;;14.93;;
6053;SDS011;3055;50.886;14.814;2023-10-13T05:09:48;18.30;;;16.00;;
6053;SDS011;3055;50.886;14.814;2023-10-13T05:12:33;18.53;;;15.60;;
6053;SDS011;3055;50.886;14.814;2023-10-13T05:15:17;18.77;;;15.57;;
6053;SDS011;3055;50.886;14.814;2023-10-13T05:17:59;17.13;;;15.33;;
6053;SDS011;3055;50.886;14.814;2023-10-13T05:20:45;17.67;;;15.83;;
6053;SDS011;3055;50.886;14.814;2023-10-13T05:23:29;17.40;;;15.43;;
6053;SDS011;3055;50.886;14.814;2023-10-13T05:26:14;18.73;;;15.80;;
6053;SDS011;3055;50.886;14.814;2023-10-13T05:29:06;16.73;;;14.60;;
6053;SDS011;3055;50.886;14.814;2023-10-13T05:31:51;16.73;;;15.03;;
6053;SDS011;3055;50.886;14.814;2023-10-13T05:34:35;16.17;;;14.40;;
6053;SDS011;3055;50.886;14.814;2023-10-13T05:37:21;16.57;;;14.83;;
6053;SDS011;3055;50.886;14.814;2023-10-13T05:40:06;19.93;;;16.83;;
6053;SDS011;3055;50.886;14.814;2023-10-13T05:42:51;16.83;;;15.10;;
6053;SDS011;3055;50.886;14.814;2023-10-13T05:45:36;16.60;;;14.60;;
6053;SDS011;3055;50.886;14.814;2023-10-13T05:48:26;15.83;;;14.17;;
6053;SDS011;3055;50.886;14.814;2023-10-13T05:51:07;16.90;;;14.53;;
6053;SDS011;3055;50.886;14.814;2023-10-13T05:53:53;18.60;;;15.27;;
6053;SDS011;3055;50.886;14.814;2023-10-13T05:56:37;15.50;;;13.90;;
6053;SDS011;3055;50.886;14.814;2023-10-13T05:59:22;23.27;;;14.73;;
6053;SDS011;3055;50.886;14.814;2023-10-13T06:02:03;21.57;;;15.67;;
6053;SDS011;3055;50.886;14.814;2023-10-13T06:04:47;20.00;;;15.03;;
6053;SDS011;3055;50.886;14.814;2023-10-13T06:07:31;19.37;;;15.13;;
6053;SDS011;3055;50.886;14.814;2023-10-13T06:10:17;15.10;;;13.23;;
6053;SDS011;3055;50.886;14.814;2023-10-13T06:13:02;15.93;;;14.17;;
6053;SDS011;3055;50.886;14.814;2023-10-13T06:15:46;15.80;;;14.10;;
6053;SDS011;3055;50.886;14.814;2023-10-13T06:18:30;19.03;;;14.80;;
6053;SDS011;3055;50.886;14.814;2023-10-13T06:21:15;15.70;;;14.07;;
6053;SDS011;3055;50.886;14.814;2023-10-13T06:23:59;17.23;;;14.30;;
6053;SDS011;3055;50.886;14.814;2023-10-13T06:26:45;16.90;;;15.10;;
6053;SDS011;3055;50.886;14.814;2023-10-13T06:29:33;16.60;;;14.07;;
6053;SDS011;3055;50.886;14.814;2023-10-13T06:32:00;18.47;;;15.53;;
6053;SDS011;3055;50.886;14.814;2023-10-13T06:34:35;17.67;;;14.07;;
6053;SDS011;3055;50.886;14.814;2023-10-13T06:37:07;15.73;;;12.33;;
6053;SDS011;3055;50.886;14.814;2023-10-13T06:39:47;20.33;;;14.60;;
6053;SDS011;3055;50.886;14.814;2023-10-13T06:42:16;17.43;;;14.50;;
6053;SDS011;3055;50.886;14.814;2023-10-13T06:44:44;15.93;;;14.23;;
6053;SDS011;3055;50.886;14.814;2023-10-13T06:47:11;17.10;;;14.93;;
6053;SDS011;3055;50.886;14.814;2023-10-13T06:49:39;14.23;;;12.93;;
6053;SDS011;3055;50.886;14.814;2023-10-13T06:52:08;15.00;;;13.30;;
6053;SDS011;3055;50.886;14.814;2023-10-13T06:54:36;17.47;;;14.40;;
6053;SDS011;3055;50.886;14.814;2023-10-13T06:57:04;14.83;;;12.90;;
6053;SDS011;3055;50.886;14.814;2023-10-13T06:59:37;15.50;;;13.27;;
6053;SDS011;3055;50.886;14.814;2023-10-13T07:02:05;14.67;;;13.27;;
6053;SDS011;3055;50.886;14.814;2023-10-13T07:04:34;16.03;;;13.03;;
6053;SDS011;3055;50.886;14.814;2023-10-13T07:07:04;14.47;;;12.97;;
6053;SDS011;3055;50.886;14.814;2023-10-13T07:09:35;16.03;;;13.27;;
6053;SDS011;3055;50.886;14.814;2023-10-13T07:12:14;14.47;;;12.83;;
6053;SDS011;3055;50.886;14.814;2023-10-13T07:14:49;14.53;;;13.03;;
6053;SDS011;3055;50.886;14.814;2023-10-13T07:17:24;13.47;;;12.17;;
6053;SDS011;3055;50.886;14.814;2023-10-13T07:19:52;19.93;;;12.03;;
6053;SDS011;3055;50.886;14.814;2023-10-13T07:22:21;13.83;;;11.10;;
6053;SDS011;3055;50.886;14.814;2023-10-13T07:24:51;13.47;;;12.03;;
6053;SDS011;3055;50.886;14.814;2023-10-13T07:27:18;13.87;;;12.43;;
6053;SDS011;3055;50.886;14.814;2023-10-13T07:29:54;12.87;;;11.57;;
6053;SDS011;3055;50.886;14.814;2023-10-13T07:32:31;14.00;;;12.17;;
6053;SDS011;3055;50.886;14.814;2023-10-13T07:34:59;13.00;;;11.30;;
6053;SDS011;3055;50.886;14.814;2023-10-13T07:37:36;11.67;;;10.43;;
6053;SDS011;3055;50.886;14.814;2023-10-13T07:40:06;13.97;;;11.47;;
6053;SDS011;3055;50.886;14.814;2023-10-13T07:42:47;11.33;;;10.20;;
6053;SDS011;3055;50.886;14.814;2023-10-13T07:45:17;12.27;;;10.53;;
6053;SDS011;3055;50.886;14.814;2023-10-13T07:47:49;10.83;;;9.67;;
6053;SDS011;3055;50.886;14.814;2023-10-13T07:50:16;10.40;;;9.20;;
6053;SDS011;3055;50.886;14.814;2023-10-13T07:52:50;10.53;;;8.87;;
6053;SDS011;3055;50.886;14.814;2023-10-13T07:55:30;11.33;;;10.23;;
6053;SDS011;3055;50.886;14.814;2023-10-13T07:57:59;11.07;;;9.53;;
6053;SDS011;3055;50.886;14.814;2023-10-13T08:00:34;13.63;;;10.93;;
6053;SDS011;3055;50.886;14.814;2023-10-13T08:03:19;11.93;;;10.73;;
6053;SDS011;3055;50.886;14.814;2023-10-13T08:06:00;13.93;;;9.10;;
6053;SDS011;3055;50.886;14.814;2023-10-13T08:08:31;12.50;;;9.30;;
6053;SDS011;3055;50.886;14.814;2023-10-13T08:11:04;11.23;;;10.07;;
6053;SDS011;3055;50.886;14.814;2023-10-13T08:13:49;11.57;;;9.10;;
6053;SDS011;3055;50.886;14.814;2023-10-13T08:16:23;11.57;;;8.93;;
6053;SDS011;3055;50.886;14.814;2023-10-13T08:18:55;11.20;;;9.23;;
6053;SDS011;3055;50.886;14.814;2023-10-13T08:21:26;11.73;;;7.93;;
6053;SDS011;3055;50.886;14.814;2023-10-13T08:23:57;9.03;;;8.13;;
6053;SDS011;3055;50.886;14.814;2023-10-13T08:26:27;11.13;;;8.93;;
6053;SDS011;3055;50.886;14.814;2023-10-13T08:29:17;11.50;;;8.30;;
6053;SDS011;3055;50.886;14.814;2023-10-13T08:32:04;8.43;;;7.53;;
6053;SDS011;3055;50.886;14.814;2023-10-13T08:34:47;10.67;;;8.00;;
6053;SDS011;3055;50.886;14.814;2023-10-13T08:37:35;9.60;;;8.60;;
6053;SDS011;3055;50.886;14.814;2023-10-13T08:40:24;11.17;;;8.13;;
6053;SDS011;3055;50.886;14.814;2023-10-13T08:43:13;10.43;;;8.13;;
6053;SDS011;3055;50.886;14.814;2023-10-13T08:45:42;8.60;;;7.70;;
6053;SDS011;3055;50.886;14.814;2023-10-13T08:48:25;8.33;;;6.93;;
6053;SDS011;3055;50.886;14.814;2023-10-13T08:51:01;10.43;;;7.53;;
6053;SDS011;3055;50.886;14.814;2023-10-13T08:53:51;9.17;;;7.50;;
6053;SDS011;3055;50.886;14.814;2023-10-13T08:56:23;10.67;;;6.80;;
6053;SDS011;3055;50.886;14.814;2023-10-13T08:59:00;9.63;;;6.70;;
6053;SDS011;3055;50.886;14.814;2023-10-13T09:01:35;8.73;;;5.90;;
6053;SDS011;3055;50.886;14.814;2023-10-13T09:04:13;9.97;;;6.67;;
6053;SDS011;3055;50.886;14.814;2023-10-13T09:06:47;8.50;;;6.70;;
6053;SDS011;3055;50.886;14.814;2023-10-13T09:09:33;8.37;;;6.57;;
6053;SDS011;3055;50.886;14.814;2023-10-13T09:12:24;7.40;;;5.93;;
6053;SDS011;3055;50.886;14.814;2023-10-13T09:15:01;7.43;;;6.00;;
6053;SDS011;3055;50.886;14.814;2023-10-13T09:17:42;6.97;;;6.37;;
6053;SDS011;3055;50.886;14.814;2023-10-13T09:20:14;9.70;;;6.40;;
6053;SDS011;3055;50.886;14.814;2023-10-13T09:22:57;9.87;;;6.33;;
6053;SDS011;3055;50.886;14.814;2023-10-13T09:25:34;8.87;;;6.37;;
6053;SDS011;3055;50.886;14.814;2023-10-13T09:28:02;9.10;;;6.20;;
6053;SDS011;3055;50.886;14.814;2023-10-13T09:30:43;7.90;;;6.77;;
6053;SDS011;3055;50.886;14.814;2023-10-13T09:33:10;11.47;;;8.30;;
6053;SDS011;3055;50.886;14.814;2023-10-13T09:35:44;7.90;;;7.10;;
6053;SDS011;3055;50.886;14.814;2023-10-13T09:38:14;9.53;;;6.50;;
6053;SDS011;3055;50.886;14.814;2023-10-13T09:40:41;10.13;;;6.60;;
6053;SDS011;3055;50.886;14.814;2023-10-13T09:43:15;10.93;;;6.60;;
6053;SDS011;3055;50.886;14.814;2023-10-13T09:45:43;9.33;;;6.70;;
6053;SDS011;3055;50.886;14.814;2023-10-13T09:48:29;8.17;;;6.60;;
6053;SDS011;3055;50.886;14.814;2023-10-13T09:51:00;8.70;;;6.00;;
6053;SDS011;3055;50.886;14.814;2023-10-13T09:53:31;7.47;;;5.90;;
6053;SDS011;3055;50.886;14.814;2023-10-13T09:56:00;9.60;;;6.90;;
6053;SDS011;3055;50.886;14.814;2023-10-13T09:58:42;9.97;;;6.47;;
6053;SDS011;3055;50.886;14.814;2023-10-13T10:01:14;12.07;;;7.27;;
6053;SDS011;3055;50.886;14.814;2023-10-13T10:03:47;7.73;;;6.43;;
6053;SDS011;3055;50.886;14.814;2023-10-13T10:06:22;8.27;;;6.87;;
6053;SDS011;3055;50.886;14.814;2023-10-13T10:09:04;8.50;;;6.47;;
6053;SDS011;3055;50.886;14.814;2023-10-13T10:11:48;9.20;;;6.33;;
6053;SDS011;3055;50.886;14.814;2023-10-13T10:14:41;6.83;;;5.93;;
6053;SDS011;3055;50.886;14.814;2023-10-13T10:17:21;10.50;;;6.53;;
6053;SDS011;3055;50.886;14.814;2023-10-13T10:19:54;8.83;;;6.23;;
6053;SDS011;3055;50.886;14.814;2023-10-13T10:22:26;9.60;;;6.33;;
6053;SDS011;3055;50.886;14.814;2023-10-13T10:24:55;11.27;;;6.80;;
6053;SDS011;3055;50.886;14.814;2023-10-13T10:27:27;9.73;;;6.00;;
6053;SDS011;3055;50.886;14.814;2023-10-13T10:29:55;8.90;;;6.90;;
6053;SDS011;3055;50.886;14.814;2023-10-13T10:32:31;10.77;;;6.80;;
6053;SDS011;3055;50.886;14.814;2023-10-13T10:35:06;7.63;;;6.90;;
6053;SDS011;3055;50.886;14.814;2023-10-13T10:37:41;10.87;;;6.60;;
6053;SDS011;3055;50.886;14.814;2023-10-13T10:40:13;8.80;;;6.13;;
6053;SDS011;3055;50.886;14.814;2023-10-13T10:42:49;8.30;;;5.50;;
6053;SDS011;3055;50.886;14.814;2023-10-13T10:45:17;6.93;;;6.23;;
6053;SDS011;3055;50.886;14.814;2023-10-13T10:47:47;8.27;;;6.40;;
6053;SDS011;3055;50.886;14.814;2023-10-13T10:50:24;8.67;;;6.33;;
6053;SDS011;3055;50.886;14.814;2023-10-13T10:53:01;9.93;;;6.37;;
6053;SDS011;3055;50.886;14.814;2023-10-13T10:55:34;8.80;;;5.63;;
6053;SDS011;3055;50.886;14.814;2023-10-13T10:58:01;8.03;;;6.47;;
6053;SDS011;3055;50.886;14.814;2023-10-13T11:00:31;8.57;;;6.13;;
6053;SDS011;3055;50.886;14.814;2023-10-13T11:03:11;10.43;;;5.90;;
6053;SDS011;3055;50.886;14.814;2023-10-13T11:05:45;10.83;;;6.37;;
6053;SDS011;3055;50.886;14.814;2023-10-13T11:08:22;6.63;;;5.70;;
6053;SDS011;3055;50.886;14.814;2023-10-13T11:10:56;8.03;;;6.07;;
6053;SDS011;3055;50.886;14.814;2023-10-13T11:13:25;8.07;;;5.57;;
6053;SDS011;3055;50.886;14.814;2023-10-13T11:15:56;8.57;;;6.27;;
6053;SDS011;3055;50.886;14.814;2023-10-13T11:18:28;9.80;;;6.10;;
6053;SDS011;3055;50.886;14.814;2023-10-13T11:21:05;8.87;;;6.33;;
6053;SDS011;3055;50.886;14.814;2023-10-13T11:23:38;9.03;;;6.40;;
6053;SDS011;3055;50.886;14.814;2023-10-13T11:26:05;7.93;;;5.63;;
6053;SDS011;3055;50.886;14.814;2023-10-13T11:28:32;9.97;;;6.10;;
6053;SDS011;3055;50.886;14.814;2023-10-13T11:30:59;8.93;;;6.27;;
6053;SDS011;3055;50.886;14.814;2023-10-13T11:33:35;9.17;;;6.93;;
6053;SDS011;3055;50.886;14.814;2023-10-13T11:36:11;10.50;;;6.33;;
6053;SDS011;3055;50.886;14.814;2023-10-13T11:38:44;9.47;;;7.00;;
6053;SDS011;3055;50.886;14.814;2023-10-13T11:41:15;9.80;;;5.60;;
6053;SDS011;3055;50.886;14.814;2023-10-13T11:43:44;9.60;;;6.17;;
6053;SDS011;3055;50.886;14.814;2023-10-13T11:46:18;9.70;;;6.00;;
6053;SDS011;3055;50.886;14.814;2023-10-13T11:49:00;12.10;;;6.40;;
6053;SDS011;3055;50.886;14.814;2023-10-13T11:51:33;10.43;;;5.80;;
6053;SDS011;3055;50.886;14.814;2023-10-13T11:54:04;8.67;;;5.07;;
6053;SDS011;3055;50.886;14.814;2023-10-13T11:56:32;7.30;;;5.13;;
6053;SDS011;3055;50.886;14.814;2023-10-13T11:58:59;7.97;;;5.00;;
6053;SDS011;3055;50.886;14.814;2023-10-13T12:01:28;10.67;;;6.33;;
6053;SDS011;3055;50.886;14.814;2023-10-13T12:04:09;10.43;;;5.50;;
6053;SDS011;3055;50.886;14.814;2023-10-13T12:07:04;9.77;;;5.10;;
6053;SDS011;3055;50.886;14.814;2023-10-13T12:09:44;9.63;;;5.67;;
6053;SDS011;3055;50.886;14.814;2023-10-13T12:12:28;8.53;;;5.73;;
6053;SDS011;3055;50.886;14.814;2023-10-13T12:14:56;8.07;;;5.33;;
6053;SDS011;3055;50.886;14.814;2023-10-13T12:17:34;6.43;;;5.03;;
6053;SDS011;3055;50.886;14.814;2023-10-13T12:20:04;10.83;;;5.33;;
6053;SDS011;3055;50.886;14.814;2023-10-13T12:22:35;10.17;;;5.50;;
6053;SDS011;3055;50.886;14.814;2023-10-13T12:25:06;10.77;;;5.30;;
6053;SDS011;3055;50.886;14.814;2023-10-13T12:27:50;8.87;;;4.80;;
6053;SDS011;3055;50.886;14.814;2023-10-13T12:30:21;8.97;;;5.67;;
6053;SDS011;3055;50.886;14.814;2023-10-13T12:33:00;8.90;;;5.33;;
6053;SDS011;3055;50.886;14.814;2023-10-13T12:35:34;10.33;;;5.53;;
6053;SDS011;3055;50.886;14.814;2023-10-13T12:38:10;8.00;;;5.57;;
6053;SDS011;3055;50.886;14.814;2023-10-13T12:41:05;10.77;;;5.50;;
6053;SDS011;3055;50.886;14.814;2023-10-13T12:43:49;9.07;;;5.00;;
6053;SDS011;3055;50.886;14.814;2023-10-13T12:46:34;10.93;;;5.57;;
6053;SDS011;3055;50.886;14.814;2023-10-13T12:49:18;7.57;;;4.93;;
6053;SDS011;3055;50.886;14.814;2023-10-13T12:52:04;11.73;;;5.47;;
6053;SDS011;3055;50.886;14.814;2023-10-13T12:54:30;7.93;;;5.20;;
6053;SDS011;3055;50.886;14.814;2023-10-13T12:57:02;8.60;;;5.10;;
6053;SDS011;3055;50.886;14.814;2023-10-13T12:59:34;9.37;;;6.10;;
6053;SDS011;3055;50.886;14.814;2023-10-13T13:02:02;9.50;;;4.57;;
6053;SDS011;3055;50.886;14.814;2023-10-13T13:04:32;8.27;;;4.93;;
6053;SDS011;3055;50.886;14.814;2023-10-13T13:07:02;9.73;;;5.00;;
6053;SDS011;3055;50.886;14.814;2023-10-13T13:09:29;10.17;;;5.30;;
6053;SDS011;3055;50.886;14.814;2023-10-13T13:11:56;10.83;;;5.57;;
6053;SDS011;3055;50.886;14.814;2023-10-13T13:14:25;9.27;;;4.90;;
6053;SDS011;3055;50.886;14.814;2023-10-13T13:16:54;7.83;;;5.23;;
6053;SDS011;3055;50.886;14.814;2023-10-13T13:19:24;6.83;;;4.37;;
6053;SDS011;3055;50.886;14.814;2023-10-13T13:21:51;8.83;;;5.30;;
6053;SDS011;3055;50.886;14.814;2023-10-13T13:24:18;7.57;;;5.03;;
6053;SDS011;3055;50.886;14.814;2023-10-13T13:26:45;10.20;;;5.13;;
6053;SDS011;3055;50.886;14.814;2023-10-13T13:29:13;9.40;;;5.40;;
6053;SDS011;3055;50.886;14.814;2023-10-13T13:31:43;9.13;;;4.67;;
6053;SDS011;3055;50.886;14.814;2023-10-13T13:34:11;8.30;;;5.40;;
6053;SDS011;3055;50.886;14.814;2023-10-13T13:36:39;8.27;;;4.90;;
6053;SDS011;3055;50.886;14.814;2023-10-13T13:39:10;11.80;;;5.03;;
6053;SDS011;3055;50.886;14.814;2023-10-13T13:41:37;8.30;;;5.10;;
6053;SDS011;3055;50.886;14.814;2023-10-13T13:44:04;7.43;;;4.27;;
6053;SDS011;3055;50.886;14.814;2023-10-13T13:46:39;7.30;;;4.93;;
6053;SDS011;3055;50.886;14.814;2023-10-13T13:49:11;8.80;;;5.30;;
6053;SDS011;3055;50.886;14.814;2023-10-13T13:51:44;12.17;;;5.27;;
6053;SDS011;3055;50.886;14.814;2023-10-13T13:54:17;8.57;;;4.93;;
6053;SDS011;3055;50.886;14.814;2023-10-13T13:56:46;6.80;;;4.77;;
6053;SDS011;3055;50.886;14.814;2023-10-13T13:59:13;7.93;;;4.90;;
6053;SDS011;3055;50.886;14.814;2023-10-13T14:01:45;10.07;;;4.77;;
6053;SDS011;3055;50.886;14.814;2023-10-13T14:04:13;7.60;;;4.40;;
6053;SDS011;3055;50.886;14.814;2023-10-13T14:06:43;10.13;;;4.60;;
6053;SDS011;3055;50.886;14.814;2023-10-13T14:09:11;9.40;;;5.00;;
6053;SDS011;3055;50.886;14.814;2023-10-13T14:11:42;9.00;;;5.60;;
6053;SDS011;3055;50.886;14.814;2023-10-13T14:14:25;12.73;;;5.20;;
6053;SDS011;3055;50.886;14.814;2023-10-13T14:16:58;7.57;;;4.63;;
6053;SDS011;3055;50.886;14.814;2023-10-13T14:19:33;8.03;;;4.73;;
6053;SDS011;3055;50.886;14.814;2023-10-13T14:22:05;11.43;;;4.80;;
6053;SDS011;3055;50.886;14.814;2023-10-13T14:24:32;9.30;;;5.20;;
6053;SDS011;3055;50.886;14.814;2023-10-13T14:27:08;9.97;;;4.87;;
6053;SDS011;3055;50.886;14.814;2023-10-13T14:29:40;10.70;;;5.73;;
6053;SDS011;3055;50.886;14.814;2023-10-13T14:32:08;9.23;;;5.17;;
6053;SDS011;3055;50.886;14.814;2023-10-13T14:34:41;10.80;;;5.50;;
6053;SDS011;3055;50.886;14.814;2023-10-13T14:37:09;7.10;;;4.53;;
6053;SDS011;3055;50.886;14.814;2023-10-13T14:39:38;10.30;;;4.93;;
6053;SDS011;3055;50.886;14.814;2023-10-13T14:42:08;7.93;;;4.47;;
6053;SDS011;3055;50.886;14.814;2023-10-13T14:44:35;11.80;;;4.93;;
6053;SDS011;3055;50.886;14.814;2023-10-13T14:47:03;11.60;;;5.10;;
6053;SDS011;3055;50.886;14.814;2023-10-13T14:49:31;7.53;;;5.10;;
6053;SDS011;3055;50.886;14.814;2023-10-13T14:52:01;8.53;;;5.00;;
6053;SDS011;3055;50.886;14.814;2023-10-13T14:54:28;8.63;;;4.77;;
6053;SDS011;3055;50.886;14.814;2023-10-13T14:56:59;8.67;;;4.90;;
6053;SDS011;3055;50.886;14.814;2023-10-13T14:59:27;11.33;;;5.67;;
6053;SDS011;3055;50.886;14.814;2023-10-13T15:01:58;13.03;;;4.60;;
6053;SDS011;3055;50.886;14.814;2023-10-13T15:04:27;6.73;;;4.50;;
6053;SDS011;3055;50.886;14.814;2023-10-13T15:06:57;8.73;;;5.40;;
6053;SDS011;3055;50.886;14.814;2023-10-13T15:09:28;12.50;;;5.27;;
6053;SDS011;3055;50.886;14.814;2023-10-13T15:11:55;9.57;;;5.43;;
6053;SDS011;3055;50.886;14.814;2023-10-13T15:14:30;12.23;;;5.20;;
6053;SDS011;3055;50.886;14.814;2023-10-13T15:16:58;9.13;;;5.93;;
6053;SDS011;3055;50.886;14.814;2023-10-13T15:19:27;8.13;;;5.10;;
6053;SDS011;3055;50.886;14.814;2023-10-13T15:22:01;11.97;;;6.23;;
6053;SDS011;3055;50.886;14.814;2023-10-13T15:24:32;9.07;;;5.17;;
6053;SDS011;3055;50.886;14.814;2023-10-13T15:27:06;7.73;;;6.00;;
6053;SDS011;3055;50.886;14.814;2023-10-13T15:29:34;12.37;;;5.37;;
6053;SDS011;3055;50.886;14.814;2023-10-13T15:32:02;10.40;;;5.33;;